Airfield :
LOGIN :

Register | Disclaimer

   EN    FR    IT 

 










Legend :    VFR   Marginal VFR   IFR   Intensive IFR   Very Intensive IFR
Visi :
Ceiling :
>= 8 km
>= 3000ft
5 to 8 km
1000 to 3000 ft
1500m to 5 km
500 to 1000 ft
800 to 1500m
200 to 500 ft
< 800m
< 200 ft
Symbols :   Thunderstorms  Fog  Heavy snow  Heavy precipitations  Wind > 20 kt
SIGMETs :     Misc.  Thunderstorms  Icing  Turbulence  Mountain Waves  Volcanic Ashes







- Airport Elevation : 0 ft


ENSL - Sleipner A Platform

CURRENT METAR :
  • 250050Z AUTO 14011KT 6000NDV OVC005/// 13/12 Q1018 W10/S5

EXPIRED METARs :
  • 250020Z AUTO 14014KT 6000NDV OVC006/// 13/12 Q1019 W11/S5
  • 242350Z AUTO 13016KT 7000NDV OVC009/// 13/12 Q1019 W11/S5
  • 242320Z AUTO 12018KT 7000NDV OVC010/// 13/12 Q1019 W10/S5
  • 242250Z AUTO 12022KT 7000NDV OVC008/// 13/12 Q1019 W11/S5
  • 242220Z AUTO 11026KT 7000NDV -SHRA OVC008/// 13/12 Q1019 W10/S5

Expired Forecast.
No reported NOTAMs for that airfield.



MET'MAP, your aeronautical weather chart ! - Copyright ORBIFLY December 2007 - Disclaimer

ORBIFLY MET'MAP TEAM :

Programming & Development : Alexandra Zaïnal
Concept & Development : Baudouin d'Aumeries
Co-Development & Prog : Marc-Olivier Méhu
Technical & hardware support : Manuel Goepfert

Contact : metmap@orbifly.com




SOURCES & CREDITS :

   NOAA